Eastmont, Washington
Current Conditions -  °F | °C
As of 4:53 AM on Saturday 25 Oct 2014 (Local Time) from KPAE Reporting Station
Few Clouds Few Clouds  
Wind Chill: 48°   Ceiling: Unl
Heat Index: 48°   Visibility: 10mi
Dew Point: 47°   Wind: 3mph
Humidity: 96%   Direction: 10°N
Pressure: 29.54"   Gusts: NA
Location:  47.9027°N, 122.261°W
Report Text: KPAE 251153Z AUTO 01003KT 10SM FEW001 09/08 A2954 RMK AO2 SLP002 60002 70013 T00890083 10106 20089 58048
Loading
Personal Weather Stations






























Interactive Weather Map
Tropical Storm Tracking
New forecast layout! Learn more

10-Day Weather Forecast

Advertisements
Track Severe Weather on mobile